Yocumtown, Pennsylvania
Current Conditions -  °F | °C
As of 10:56 AM on Tuesday 21 Oct 2014 (Local Time) from KMDT Reporting Station
Haze Haze  
Wind Chill: 54°   Ceiling: 5000
Heat Index: 54°   Visibility: 5mi
Dew Point: 52°   Wind: 3mph
Humidity: 93%   Direction: 270°W
Pressure: 29.87"   Gusts: NA
Location:  40.1451°N, 76.7914°W
Report Text: KMDT 211456Z 27003KT 5SM BR OVC050 12/11 A2987 RMK AO2 SLP115 T01220111
Loading
Personal Weather Stations






























Interactive Weather Map
Tropical Storm Tracking
New forecast layout! Learn more

10-Day Weather Forecast

Advertisements
Track Severe Weather on mobile